Wetterdaten: aktuell Dienstag, 30.05.2023 03:50
Datum Zeit Innen Temp. A. Schlaf Luftf.innen Feuchte A. Feuchte 2 Luftdruck Regen Wind
30.05.2023 03:50 24,0 C 10,7 C 22,4 C 42 % 76 % 45 % 1016,6 hPa 0,0 mm 0,0 km/h
30.05.2023 02:50 24,2 C 10,5 C 22,6 C 42 % 77 % 45 % 1016,6 hPa 0,0 mm 0,0 km/h
30.05.2023 01:50 24,4 C 11,5 C 22,7 C 42 % 74 % 44 % 1016,4 hPa 0,0 mm 0,0 km/h
30.05.2023 00:50 24,6 C 12,8 C 22,8 C 42 % 68 % 44 % 1016,2 hPa 0,0 mm 0,0 km/h
29.05.2023 23:50 24,8 C 13,6 C 22,8 C 42 % 65 % 44 % 1017,2 hPa 0,0 mm 0,0 km/h
29.05.2023 22:50 25,1 C 15,0 C 22,8 C 41 % 59 % 43 % 1017,0 hPa 0,0 mm 0,0 km/h
29.05.2023 21:50 25,1 C 18,3 C 22,8 C 39 % 45 % 43 % 1015,5 hPa 0,0 mm 0,0 km/h
29.05.2023 20:50 25,3 C 19,6 C 22,8 C 40 % 42 % 43 % 1015,3 hPa 0,0 mm 0,8 km/h
29.05.2023 19:50 25,4 C 21,4 C 22,8 C 39 % 36 % 43 % 1014,0 hPa 0,0 mm 0,5 km/h
29.05.2023 18:50 25,6 C 22,6 C 22,8 C 39 % 34 % 43 % 1013,8 hPa 0,0 mm 4,4 km/h
29.05.2023 17:50 25,7 C 23,6 C 22,9 C 44 % 30 % 44 % 1013,7 hPa 0,0 mm 4,4 km/h
29.05.2023 16:50 25,5 C 25,0 C 22,9 C 42 % 27 % 44 % 1013,5 hPa 0,0 mm 2,5 km/h
29.05.2023 15:50 25,4 C 25,4 C 23,0 C 42 % 30 % 45 % 1013,4 hPa 0,0 mm 4,1 km/h
29.05.2023 14:50 25,2 C 24,9 C 22,9 C 43 % 28 % 45 % 1013,5 hPa 0,0 mm 3,3 km/h
29.05.2023 13:50 25,1 C 24,8 C 22,9 C 41 % 30 % 46 % 1014,6 hPa 0,0 mm 3,8 km/h
29.05.2023 12:50 25,1 C 24,4 C 22,9 C 41 % 33 % 46 % 1014,6 hPa 0,0 mm 4,4 km/h
29.05.2023 11:50 25,2 C 23,2 C 22,9 C 42 % 37 % 47 % 1014,8 hPa 0,0 mm 4,1 km/h
29.05.2023 10:50 25,3 C 23,3 C 23,0 C 43 % 38 % 48 % 1014,8 hPa 0,0 mm 1,3 km/h
29.05.2023 09:50 25,3 C 22,0 C 22,8 C 45 % 41 % 48 % 1014,9 hPa 0,0 mm 2,7 km/h
29.05.2023 08:50 24,9 C 18,6 C 22,6 C 47 % 58 % 49 % 1015,4 hPa 0,0 mm 0,0 km/h
29.05.2023 07:50 24,4 C 15,5 C 22,2 C 48 % 71 % 49 % 1015,9 hPa 0,0 mm 0,0 km/h
29.05.2023 06:50 24,2 C 12,4 C 22,0 C 48 % 79 % 49 % 1016,3 hPa 0,0 mm 0,0 km/h
29.05.2023 05:50 24,2 C 10,1 C 22,0 C 48 % 84 % 49 % 1015,6 hPa 0,0 mm 0,0 km/h
29.05.2023 04:50 24,2 C 10,4 C 22,1 C 48 % 84 % 48 % 1015,6 hPa 0,0 mm 0,0 km/h
29.05.2023 04:00 24,4 C 10,5 C 22,2 C 48 % 83 % 48 % 1015,5 hPa 0,0 mm 0,0 km/h
_ Min-Zeit 03:45 05:00 06:40 18:30 16:30 18:00 16:00 - 04:00
Minimum _ 24,0 C 10,0 C 21,9 C 39 % 25 % 43 % 1013,4 hPa - 0,0 km/h
_ Max-Zeit 17:35 16:00 10:50 04:00 05:10 05:20 00:35 04:00 13:05
Maximum _ 25,7 C 25,8 C 23,0 C 48 % 85 % 49 % 1017,3 hPa 0,0 mm 22,7 km/h
N
Durchschnitt _ 24,9 C 17,7 C 22,6 C 43 % 54 % 46 % 1015,2 hPa #0,0 mm 1,7 km/h